createdAt,value
2019-03-26T00:02:24.341Z,6.77
2019-03-26T00:04:56.021Z,5.60
2019-03-26T00:07:27.462Z,6.97
2019-03-26T00:09:59.145Z,9.33
2019-03-26T00:12:30.590Z,4.73
2019-03-26T00:15:02.745Z,4.93
2019-03-26T00:17:34.551Z,6.80
2019-03-26T00:22:47.512Z,6.57
2019-03-26T00:25:19.673Z,7.13
2019-03-26T00:27:51.351Z,5.53
2019-03-26T00:30:23.033Z,5.30
2019-03-26T00:32:54.475Z,4.63
2019-03-26T00:35:26.634Z,5.10
2019-03-26T00:37:58.078Z,11.03
2019-03-26T00:40:29.759Z,7.40
2019-03-26T00:43:02.041Z,5.87
2019-03-26T00:45:34.440Z,5.97
2019-03-26T00:48:07.923Z,7.70
2019-03-26T00:50:39.605Z,7.17
2019-03-26T00:53:11.405Z,6.10
2019-03-26T00:55:42.851Z,6.07
2019-03-26T00:58:15.128Z,5.60
2019-03-26T01:00:47.290Z,9.53
2019-03-26T01:03:18.736Z,5.40
2019-03-26T01:05:50.296Z,10.27
2019-03-26T01:08:21.854Z,5.47
2019-03-26T01:10:53.654Z,6.73
2019-03-26T01:13:25.094Z,7.17
2019-03-26T01:15:56.897Z,8.13
2019-03-26T01:18:28.338Z,7.40
2019-03-26T01:20:59.542Z,7.57
2019-03-26T01:23:32.906Z,7.07
2019-03-26T01:26:05.420Z,7.87
2019-03-26T01:28:37.225Z,9.33
2019-03-26T01:31:09.025Z,8.33
2019-03-26T01:33:40.707Z,8.07
2019-03-26T01:36:12.871Z,8.27
2019-03-26T01:38:45.628Z,7.20
2019-03-26T01:41:17.191Z,8.00
2019-03-26T01:43:48.991Z,8.10
2019-03-26T01:46:20.433Z,6.70
2019-03-26T01:48:51.755Z,8.93
2019-03-26T01:51:23.072Z,8.23
2019-03-26T01:53:54.518Z,7.00
2019-03-26T01:56:26.083Z,8.37
2019-03-26T01:58:58.002Z,11.10
2019-03-26T02:01:29.441Z,8.90
2019-03-26T02:04:01.327Z,8.80
2019-03-26T02:06:32.563Z,8.90
2019-03-26T02:09:05.083Z,7.47
2019-03-26T02:11:36.766Z,6.67
2019-03-26T02:14:08.329Z,8.83
2019-03-26T02:16:39.767Z,8.07
2019-03-26T02:19:11.211Z,8.47
2019-03-26T02:21:43.249Z,7.10
2019-03-26T02:24:14.691Z,7.33
2019-03-26T02:26:46.011Z,8.67
2019-03-26T02:29:18.173Z,9.50
2019-03-26T02:31:49.976Z,7.73
2019-03-26T02:34:21.787Z,7.70
2019-03-26T02:36:53.827Z,8.47
2019-03-26T02:39:25.025Z,9.50
2019-03-26T02:41:56.700Z,8.80
2019-03-26T02:44:28.748Z,6.87
2019-03-26T02:47:00.185Z,9.10
2019-03-26T02:49:31.630Z,9.70
2019-03-26T02:52:03.088Z,9.50
2019-03-26T02:54:34.385Z,8.17
2019-03-26T02:57:06.310Z,8.53
2019-03-26T02:59:37.883Z,9.60
2019-03-26T03:02:10.752Z,8.87
2019-03-26T03:04:42.312Z,10.10
2019-03-26T03:07:13.996Z,8.53
2019-03-26T03:09:45.436Z,9.60
2019-03-26T03:12:17.235Z,8.93
2019-03-26T03:14:48.566Z,7.33
2019-03-26T03:17:19.878Z,10.97
2019-03-26T03:19:51.800Z,8.43
2019-03-26T03:22:23.361Z,11.70
2019-03-26T03:24:54.929Z,8.40
2019-03-26T03:27:26.241Z,8.57
2019-03-26T03:29:57.925Z,7.97
2019-03-26T03:32:30.007Z,9.13
2019-03-26T03:35:02.489Z,7.10
2019-03-26T03:37:33.816Z,7.07
2019-03-26T03:40:05.854Z,7.70
2019-03-26T03:42:37.531Z,8.30
2019-03-26T03:45:11.254Z,8.33
2019-03-26T03:47:43.413Z,8.60
2019-03-26T03:50:19.531Z,6.93
2019-03-26T03:52:51.696Z,8.10
2019-03-26T03:55:23.016Z,7.30
2019-03-26T03:57:56.022Z,8.00
2019-03-26T04:00:38.979Z,8.70
2019-03-26T04:03:10.901Z,9.53
2019-03-26T04:05:42.586Z,9.73
2019-03-26T04:08:15.581Z,8.00
2019-03-26T04:10:47.267Z,8.73
2019-03-26T04:13:18.586Z,7.57
2019-03-26T04:15:50.998Z,7.83
2019-03-26T04:18:22.670Z,8.57
2019-03-26T04:20:54.590Z,8.87
2019-03-26T04:23:26.153Z,9.30
2019-03-26T04:25:57.954Z,7.73
2019-03-26T04:28:29.394Z,9.40
2019-03-26T04:31:01.799Z,9.23
2019-03-26T04:33:33.720Z,9.17
2019-03-26T04:36:05.459Z,8.97
2019-03-26T04:38:37.318Z,9.33
2019-03-26T04:41:09.242Z,9.50
2019-03-26T04:43:42.601Z,9.00
2019-03-26T04:46:14.639Z,7.97
2019-03-26T04:48:45.964Z,8.83
2019-03-26T04:51:17.647Z,9.03
2019-03-26T04:53:48.966Z,9.33
2019-03-26T04:56:20.407Z,7.67
2019-03-26T04:58:51.849Z,7.57
2019-03-26T05:01:23.648Z,8.10
2019-03-26T05:03:55.092Z,8.50
2019-03-26T05:06:37.378Z,7.80
2019-03-26T05:08:59.294Z,10.73
2019-03-26T05:11:31.574Z,8.93
2019-03-26T05:14:03.136Z,9.53
2019-03-26T05:16:35.059Z,9.73
2019-03-26T05:19:07.219Z,10.00
2019-03-26T05:21:38.898Z,7.93
2019-03-26T05:24:10.820Z,7.80
2019-03-26T05:26:43.104Z,11.90
2019-03-26T05:29:14.904Z,7.63
2019-03-26T05:31:46.470Z,9.23
2019-03-26T05:34:18.027Z,8.70
2019-03-26T05:36:51.492Z,8.27
2019-03-26T05:39:24.027Z,7.93
2019-03-26T05:41:55.350Z,9.47
2019-03-26T05:44:26.909Z,8.07
2019-03-26T05:47:01.564Z,10.00
2019-03-26T05:49:31.954Z,8.17
2019-03-26T05:52:03.397Z,9.33
2019-03-26T05:54:34.834Z,10.60
2019-03-26T05:57:06.275Z,7.20
2019-03-26T05:59:37.958Z,6.80
2019-03-26T06:02:15.128Z,8.20
2019-03-26T06:04:43.240Z,8.37
2019-03-26T06:07:15.162Z,7.10
2019-03-26T06:09:46.844Z,6.40
2019-03-26T06:12:18.406Z,8.93
2019-03-26T06:14:50.089Z,9.77
2019-03-26T06:17:21.652Z,8.53
2019-03-26T06:19:53.208Z,7.20
2019-03-26T06:22:24.689Z,9.53
2019-03-26T06:24:56.093Z,9.80
2019-03-26T06:27:27.774Z,10.40
2019-03-26T06:29:59.692Z,7.97
2019-03-26T06:32:31.135Z,7.87
2019-03-26T06:35:03.182Z,9.90
2019-03-26T06:37:34.617Z,11.47
2019-03-26T06:40:09.299Z,15.73
2019-03-26T06:42:42.420Z,12.30
2019-03-26T06:45:13.979Z,18.73
2019-03-26T06:47:46.024Z,10.10
2019-03-26T06:50:18.306Z,12.87
2019-03-26T06:52:49.869Z,13.50
2019-03-26T06:55:23.948Z,10.17
2019-03-26T06:57:55.986Z,9.10
2019-03-26T07:00:34.036Z,10.40
2019-03-26T07:03:07.388Z,11.57
2019-03-26T07:05:38.714Z,12.90
2019-03-26T07:08:10.392Z,12.07
2019-03-26T07:10:41.832Z,11.40
2019-03-26T07:13:13.754Z,9.47
2019-03-26T07:15:45.918Z,10.70
2019-03-26T07:18:18.317Z,8.07
2019-03-26T07:20:50.604Z,8.43
2019-03-26T07:23:22.519Z,8.23
2019-03-26T07:25:56.000Z,8.97
2019-03-26T07:28:27.682Z,12.53
2019-03-26T07:30:59.727Z,9.80
2019-03-26T07:33:31.045Z,15.40
2019-03-26T07:36:02.976Z,12.00
2019-03-26T07:38:35.970Z,8.30
2019-03-26T07:41:08.489Z,7.37
2019-03-26T07:43:40.649Z,10.07
2019-03-26T07:46:12.453Z,9.47
2019-03-26T07:48:44.375Z,9.03
2019-03-26T07:51:16.173Z,8.60
2019-03-26T07:53:49.539Z,7.37
2019-03-26T07:56:22.540Z,9.37
2019-03-26T07:58:53.978Z,7.27
2019-03-26T08:01:25.298Z,9.43
2019-03-26T08:03:56.502Z,8.23
2019-03-26T08:06:28.543Z,6.53
2019-03-26T08:08:59.867Z,7.50
2019-03-26T08:11:34.065Z,6.87
2019-03-26T08:14:05.745Z,7.13
2019-03-26T08:16:37.565Z,8.27
2019-03-26T08:19:09.589Z,7.20
2019-03-26T08:21:41.033Z,5.70
2019-03-26T08:24:12.239Z,6.20
2019-03-26T08:26:43.915Z,10.47
2019-03-26T08:29:15.592Z,7.20
2019-03-26T08:31:48.476Z,6.60
2019-03-26T08:34:20.277Z,5.37
2019-03-26T08:36:51.838Z,6.33
2019-03-26T08:39:23.638Z,5.90
2019-03-26T08:41:54.962Z,9.20
2019-03-26T08:44:26.409Z,5.60
2019-03-26T08:46:58.323Z,5.23
2019-03-26T08:49:30.855Z,7.43
2019-03-26T08:52:03.136Z,7.50
2019-03-26T08:54:34.206Z,4.40
2019-03-26T08:57:06.731Z,5.63
2019-03-26T08:59:39.382Z,6.40
2019-03-26T09:02:10.824Z,5.70
2019-03-26T09:04:42.133Z,4.70
2019-03-26T09:07:13.698Z,4.40
2019-03-26T09:09:45.734Z,4.80
2019-03-26T09:12:17.547Z,6.27
2019-03-26T09:14:49.338Z,5.40
2019-03-26T09:17:20.903Z,7.70
2019-03-26T09:19:52.468Z,5.20
2019-03-26T09:22:24.745Z,5.33
2019-03-26T09:24:56.301Z,4.90
2019-03-26T09:27:27.624Z,5.50
2019-03-26T09:29:59.068Z,6.80
2019-03-26T09:32:30.506Z,4.90
2019-03-26T09:35:03.508Z,5.07
2019-03-26T09:37:35.426Z,5.00
2019-03-26T09:40:09.154Z,4.47
2019-03-26T09:42:41.670Z,4.33
2019-03-26T09:45:13.953Z,4.93
2019-03-26T09:47:45.753Z,6.83
2019-03-26T09:50:21.153Z,8.00
2019-03-26T09:52:52.837Z,4.90
2019-03-26T09:55:24.637Z,8.50
2019-03-26T09:57:56.439Z,4.87
2019-03-26T10:00:28.618Z,4.63
2019-03-26T10:03:00.523Z,7.50
2019-03-26T10:05:32.324Z,5.40
2019-03-26T10:08:04.123Z,6.10
2019-03-26T10:10:36.526Z,9.70
2019-03-26T10:13:07.964Z,5.60
2019-03-26T10:15:40.247Z,4.17
2019-03-26T10:18:12.048Z,4.70
2019-03-26T10:20:43.731Z,4.20
2019-03-26T10:23:15.052Z,5.53
2019-03-26T10:25:46.851Z,4.40
2019-03-26T10:28:18.296Z,5.40
2019-03-26T10:30:50.098Z,7.27
2019-03-26T10:33:21.775Z,6.63
2019-03-26T10:35:53.218Z,5.60
2019-03-26T10:38:26.337Z,4.70
2019-03-26T10:40:57.980Z,4.13
2019-03-26T10:43:29.299Z,4.13
2019-03-26T10:46:01.383Z,5.37
2019-03-26T10:48:33.064Z,6.40
2019-03-26T10:51:05.107Z,5.90
2019-03-26T10:53:36.548Z,4.27
2019-03-26T10:59:23.470Z,5.50
2019-03-26T11:01:55.149Z,6.00
2019-03-26T11:04:26.951Z,4.90
2019-03-26T11:06:59.961Z,4.23
2019-03-26T11:09:32.118Z,4.20
2019-03-26T11:12:03.561Z,3.80
2019-03-26T11:14:35.121Z,4.00
2019-03-26T11:17:07.407Z,4.00
2019-03-26T11:19:39.202Z,3.90
2019-03-26T11:22:10.763Z,5.33
2019-03-26T11:24:42.682Z,4.60
2019-03-26T11:27:14.605Z,3.30
2019-03-26T11:29:46.529Z,3.20
2019-03-26T11:32:18.569Z,3.43
2019-03-26T11:34:49.767Z,3.93
2019-03-26T11:37:21.449Z,9.17
2019-03-26T11:39:53.015Z,3.80
2019-03-26T11:42:24.693Z,4.57
2019-03-26T11:44:59.275Z,3.37
2019-03-26T11:47:29.613Z,3.30
2019-03-26T11:50:04.600Z,3.80
2019-03-26T11:52:34.902Z,4.10
2019-03-26T11:55:06.938Z,3.00
2019-03-26T11:57:38.499Z,3.33
2019-03-26T12:00:11.508Z,3.07
2019-03-26T12:02:43.181Z,5.20
2019-03-26T12:05:16.781Z,6.30
2019-03-26T12:07:48.225Z,5.20
2019-03-26T12:10:20.384Z,4.10
2019-03-26T12:12:51.827Z,3.33
2019-03-26T12:15:23.386Z,4.50
2019-03-26T12:17:55.313Z,3.50
2019-03-26T12:20:27.946Z,5.97
2019-03-26T12:23:00.231Z,4.00
2019-03-26T12:25:31.671Z,4.30
2019-03-26T12:28:02.994Z,3.47
2019-03-26T12:30:35.993Z,4.47
2019-03-26T12:33:08.881Z,4.53
2019-03-26T12:35:41.157Z,3.70
2019-03-26T12:38:22.441Z,4.40
2019-03-26T12:40:54.121Z,5.63
2019-03-26T12:43:26.040Z,4.93
2019-03-26T12:45:58.082Z,3.33
2019-03-26T12:48:29.524Z,3.73
2019-03-26T12:51:01.565Z,3.93
2019-03-26T12:53:33.487Z,2.50
2019-03-26T12:56:05.530Z,4.80
2019-03-26T12:58:36.977Z,5.97
2019-03-26T13:01:08.531Z,2.70
2019-03-26T13:03:40.332Z,3.93
2019-03-26T13:06:11.893Z,2.97
2019-03-26T13:08:44.656Z,2.60
2019-03-26T13:11:17.287Z,2.70
2019-03-26T13:13:49.338Z,3.10
2019-03-26T13:16:21.266Z,3.33
2019-03-26T13:18:53.538Z,3.53
2019-03-26T13:21:25.221Z,3.13
2019-03-26T13:23:57.263Z,2.47
2019-03-26T13:26:28.942Z,5.80
2019-03-26T13:29:00.503Z,2.83
2019-03-26T13:31:31.826Z,4.10
2019-03-26T13:34:03.396Z,3.20
2019-03-26T13:36:35.071Z,3.63
2019-03-26T13:39:08.908Z,2.90
2019-03-26T13:41:40.490Z,6.17
2019-03-26T13:44:12.515Z,5.17
2019-03-26T13:46:44.191Z,5.47
2019-03-26T13:49:15.752Z,3.30
2019-03-26T13:51:49.000Z,3.80
2019-03-26T13:54:20.799Z,2.77
2019-03-26T13:56:52.000Z,2.90
2019-03-26T13:59:23.560Z,2.60
2019-03-26T14:01:55.119Z,3.40
2019-03-26T14:04:26.685Z,3.80
2019-03-26T14:06:58.008Z,3.60
2019-03-26T14:09:30.165Z,3.03
2019-03-26T14:12:01.725Z,3.53
2019-03-26T14:14:34.125Z,3.30
2019-03-26T14:17:05.877Z,3.90
2019-03-26T14:19:37.610Z,2.83
2019-03-26T14:22:08.932Z,3.27
2019-03-26T14:24:40.972Z,4.00
2019-03-26T14:27:12.774Z,3.90
2019-03-26T14:29:44.494Z,4.00
2019-03-26T14:32:16.614Z,2.63
2019-03-26T14:34:51.502Z,4.50
2019-03-26T14:37:21.354Z,3.33
2019-03-26T14:39:54.455Z,3.30
2019-03-26T14:42:26.586Z,3.13
2019-03-26T14:44:58.389Z,2.90
2019-03-26T14:47:30.067Z,3.70
2019-03-26T14:50:01.510Z,3.30
2019-03-26T14:52:33.067Z,6.83
2019-03-26T14:55:05.106Z,4.73
2019-03-26T14:57:36.548Z,7.10
2019-03-26T15:00:09.310Z,3.43
2019-03-26T15:02:42.672Z,6.13
2019-03-26T15:05:19.988Z,3.33
2019-03-26T15:07:52.032Z,3.03
2019-03-26T15:10:23.960Z,3.60
2019-03-26T15:12:55.876Z,3.40
2019-03-26T15:15:27.795Z,3.53
2019-03-26T15:17:59.118Z,3.37
2019-03-26T15:20:34.638Z,3.67
2019-03-26T15:23:06.082Z,6.40
2019-03-26T15:25:37.900Z,8.43
2019-03-26T15:28:11.729Z,3.60
2019-03-26T15:30:42.570Z,3.07
2019-03-26T15:33:14.128Z,9.03
2019-03-26T15:35:45.806Z,9.17
2019-03-26T15:38:17.607Z,3.93
2019-03-26T15:40:49.168Z,4.10
2019-03-26T15:43:20.610Z,3.53
2019-03-26T15:45:52.292Z,5.30
2019-03-26T15:48:23.974Z,4.10
2019-03-26T15:50:56.853Z,3.53
2019-03-26T15:53:28.539Z,3.87
2019-03-26T15:56:00.217Z,3.73
2019-03-26T15:58:31.419Z,4.43
2019-03-26T16:01:03.460Z,3.57
2019-03-26T16:03:35.264Z,3.53
2019-03-26T16:06:06.706Z,3.80
2019-03-26T16:08:38.384Z,4.87
2019-03-26T16:11:10.185Z,3.83
2019-03-26T16:13:41.627Z,4.47
2019-03-26T16:16:42.958Z,6.40
2019-03-26T16:19:17.907Z,4.13
2019-03-26T16:21:48.965Z,8.03
2019-03-26T16:24:20.390Z,7.97
2019-03-26T16:26:51.712Z,3.60
2019-03-26T16:29:25.929Z,4.37
2019-03-26T16:31:55.918Z,10.07
2019-03-26T16:34:27.482Z,5.83
2019-03-26T16:37:00.149Z,5.63
2019-03-26T16:39:32.285Z,4.83
2019-03-26T16:42:04.320Z,13.60
2019-03-26T16:44:36.122Z,11.17
2019-03-26T16:47:07.684Z,5.73
2019-03-26T16:49:38.890Z,4.30
2019-03-26T16:52:10.689Z,3.97
2019-03-26T16:54:42.544Z,4.33
2019-03-26T16:57:13.811Z,4.17
2019-03-26T16:59:45.250Z,4.83
2019-03-26T17:02:18.614Z,4.40
2019-03-26T17:04:50.173Z,6.50
2019-03-26T17:07:21.493Z,6.70
2019-03-26T17:09:55.939Z,4.60
2019-03-26T17:12:27.855Z,5.90
2019-03-26T17:14:59.894Z,6.43
2019-03-26T17:17:31.337Z,5.23
2019-03-26T17:20:02.660Z,6.57
2019-03-26T17:22:34.221Z,5.60
2019-03-26T17:25:06.261Z,4.30
2019-03-26T17:27:37.584Z,5.10
2019-03-26T17:30:09.384Z,5.67
2019-03-26T17:32:40.948Z,4.53
2019-03-26T17:35:17.186Z,6.30
2019-03-26T17:37:59.073Z,4.00
2019-03-26T17:40:21.751Z,6.20
2019-03-26T17:42:53.310Z,4.30
2019-03-26T17:45:25.358Z,7.00
2019-03-26T17:47:57.394Z,7.37
2019-03-26T17:50:29.429Z,4.73
2019-03-26T17:53:01.120Z,6.20
2019-03-26T17:55:32.798Z,5.67
2019-03-26T17:58:04.362Z,5.10
2019-03-26T18:00:41.679Z,4.67
2019-03-26T18:03:25.826Z,5.53
2019-03-26T18:05:46.482Z,5.13
2019-03-26T18:08:17.683Z,5.00
2019-03-26T18:10:49.128Z,5.80
2019-03-26T18:13:20.326Z,7.33
2019-03-26T18:15:52.009Z,5.87
2019-03-26T18:18:23.928Z,5.83
2019-03-26T18:20:55.850Z,5.87
2019-03-26T18:23:27.536Z,5.97
2019-03-26T18:25:59.822Z,5.50
2019-03-26T18:28:31.496Z,7.40
2019-03-26T18:31:03.052Z,9.30
2019-03-26T18:33:34.618Z,10.87
2019-03-26T18:36:06.540Z,12.20
2019-03-26T18:38:39.060Z,9.07
2019-03-26T18:41:11.461Z,7.10
2019-03-26T18:43:42.780Z,6.43
2019-03-26T18:46:14.224Z,7.60
2019-03-26T18:48:46.025Z,7.83
2019-03-26T18:51:17.471Z,9.27
2019-03-26T18:53:49.511Z,6.83
2019-03-26T18:56:20.947Z,6.40
2019-03-26T18:58:52.275Z,9.70
2019-03-26T19:01:23.834Z,8.97
2019-03-26T19:03:55.750Z,10.90
2019-03-26T19:06:27.432Z,11.73
2019-03-26T19:08:59.359Z,9.57
2019-03-26T19:11:31.403Z,10.17
2019-03-26T19:14:03.457Z,28.47
2019-03-26T19:16:35.366Z,19.80
2019-03-26T19:19:11.367Z,22.50
2019-03-26T19:21:45.331Z,35.63
2019-03-26T19:24:18.327Z,28.40
2019-03-26T19:26:53.249Z,22.20
2019-03-26T19:29:29.248Z,13.80
2019-03-26T19:32:01.047Z,11.77
2019-03-26T19:34:35.132Z,9.20
2019-03-26T19:37:09.940Z,13.90
2019-03-26T19:39:41.613Z,8.50
2019-03-26T19:42:13.655Z,17.60
2019-03-26T19:44:46.062Z,10.30
2019-03-26T19:47:18.943Z,11.10
2019-03-26T19:49:51.698Z,11.30
2019-03-26T19:52:23.982Z,10.70
2019-03-26T19:55:02.267Z,13.20
2019-03-26T19:57:38.165Z,13.20
2019-03-26T20:00:12.943Z,6.67
2019-03-26T20:02:45.943Z,7.60
2019-03-26T20:05:22.424Z,9.60
2019-03-26T20:08:13.552Z,5.03
2019-03-26T20:10:45.596Z,11.37
2019-03-26T20:13:24.204Z,6.30
2019-03-26T20:15:52.193Z,7.07
2019-03-26T20:18:24.108Z,6.73
2019-03-26T20:20:58.440Z,15.63
2019-03-26T20:23:33.959Z,10.73
2019-03-26T20:26:07.679Z,6.73
2019-03-26T20:28:41.761Z,9.30
2019-03-26T20:31:13.442Z,8.83
2019-03-26T20:33:44.882Z,9.73
2019-03-26T20:36:20.409Z,7.37
2019-03-26T20:38:55.081Z,5.40
2019-03-26T20:41:27.284Z,9.73
2019-03-26T20:44:00.066Z,7.40
2019-03-26T20:46:32.769Z,6.23
2019-03-26T20:49:06.854Z,6.40
2019-03-26T20:51:40.449Z,7.50
2019-03-26T20:54:18.375Z,8.23
2019-03-26T20:56:50.896Z,6.80
2019-03-26T20:59:22.819Z,7.20
2019-03-26T21:01:55.176Z,8.00
2019-03-26T21:04:34.717Z,8.87
2019-03-26T21:07:07.818Z,9.23
2019-03-26T21:09:42.456Z,10.87
2019-03-26T21:12:18.150Z,5.93
2019-03-26T21:14:50.306Z,6.27
2019-03-26T21:17:25.946Z,7.07
2019-03-26T21:19:57.995Z,6.07
2019-03-26T21:22:30.870Z,7.23
2019-03-26T21:25:06.751Z,7.10
2019-03-26T21:27:39.512Z,8.17
2019-03-26T21:30:15.721Z,7.73
2019-03-26T21:32:50.677Z,10.80
2019-03-26T21:35:23.427Z,6.23
2019-03-26T21:37:55.232Z,10.87
2019-03-26T21:40:26.795Z,5.50
2019-03-26T21:42:58.476Z,6.93
2019-03-26T21:45:40.234Z,7.73
2019-03-26T21:48:12.278Z,10.30
2019-03-26T21:50:44.437Z,8.83
2019-03-26T21:53:16.000Z,8.63
2019-03-26T21:55:47.682Z,8.10
2019-03-26T21:58:19.362Z,8.00
2019-03-26T22:00:51.044Z,9.00
2019-03-26T22:03:23.090Z,10.33
2019-03-26T22:05:54.525Z,7.23
2019-03-26T22:08:26.452Z,8.20
2019-03-26T22:10:57.770Z,8.53
2019-03-26T22:13:29.687Z,7.23
2019-03-26T22:16:01.130Z,7.63
2019-03-26T22:18:32.812Z,6.20
2019-03-26T22:21:04.492Z,10.30
2019-03-26T22:23:35.815Z,11.77
2019-03-26T22:26:08.333Z,12.10
2019-03-26T22:28:39.778Z,8.40
2019-03-26T22:31:11.096Z,7.40
2019-03-26T22:33:42.418Z,13.50
2019-03-26T22:36:14.103Z,6.93
2019-03-26T22:38:45.579Z,8.00
2019-03-26T22:41:17.702Z,8.90
2019-03-26T22:43:49.024Z,7.80
2019-03-26T22:46:20.583Z,9.10
2019-03-26T22:48:51.906Z,7.47
2019-03-26T22:51:23.951Z,10.73
2019-03-26T22:53:57.190Z,9.37
2019-03-26T22:56:28.630Z,8.80
2019-03-26T22:58:59.950Z,9.67
2019-03-26T23:01:31.634Z,8.10
2019-03-26T23:04:03.314Z,7.50
2019-03-26T23:06:35.234Z,7.53
2019-03-26T23:09:07.396Z,11.30
2019-03-26T23:11:40.638Z,12.30
2019-03-26T23:14:12.678Z,11.80
2019-03-26T23:16:44.962Z,13.50
2019-03-26T23:19:16.525Z,9.10
2019-03-26T23:21:47.964Z,11.90
2019-03-26T23:24:20.244Z,9.80
2019-03-26T23:26:51.806Z,14.00
2019-03-26T23:29:23.486Z,8.60
2019-03-26T23:31:55.168Z,13.87
2019-03-26T23:34:27.450Z,9.67
2019-03-26T23:36:59.138Z,13.00
2019-03-26T23:39:31.050Z,14.83
2019-03-26T23:42:03.692Z,10.57
2019-03-26T23:44:34.896Z,10.33
2019-03-26T23:47:06.942Z,12.03
2019-03-26T23:49:38.979Z,16.97
2019-03-26T23:52:10.783Z,14.20
2019-03-26T23:54:42.343Z,11.30
2019-03-26T23:57:14.742Z,15.00
2019-03-26T23:59:46.421Z,15.73
